Time;durP1;ratioP1;P1;durP2;ratioP2;P2;SDS_P1;SDS_P2;PMS_P1;PMS_P2;Temp;Humidity;BMP_temperature;BMP_pressure;BME280_temperature;BME280_humidity;BME280_pressure;Samples;Min_cycle;Max_cycle;Signal;HPM_P1;HPM_P2
2023/08/17 00:02:11;;;;;;;16.83;7.25;;;;;;;;;;5114151;28;20532;-65
2023/08/17 00:04:39;;;;;;;13.60;7.20;;;;;;;;;;5113300;28;20675;-65
2023/08/17 00:07:06;;;;;;;13.73;6.00;;;;;;;;;;5113751;28;20507;-64
2023/08/17 00:09:33;;;;;;;12.38;6.50;;;;;;;;;;5112504;28;20075;-64
2023/08/17 00:12:00;;;;;;;10.38;6.20;;;;;;;;;;5113756;28;20134;-65
2023/08/17 00:14:26;;;;;;;13.25;6.00;;;;;;;;;;5113577;28;20044;-64
2023/08/17 00:16:53;;;;;;;12.82;6.05;;;;;;;;;;5114099;28;20043;-65
2023/08/17 00:19:19;;;;;;;10.43;6.22;;;;;;;;;;5112871;28;20500;-65
2023/08/17 00:21:47;;;;;;;10.40;5.60;;;;;;;;;;5113158;28;20456;-65
2023/08/17 00:24:14;;;;;;;10.63;6.03;;;;;;;;;;5113325;28;20130;-65
2023/08/17 00:26:40;;;;;;;13.15;5.93;;;;;;;;;;5113483;28;20126;-66
2023/08/17 00:29:07;;;;;;;16.08;5.38;;;;;;;;;;5113168;28;20047;-65
2023/08/17 00:31:33;;;;;;;10.55;5.75;;;;;;;;;;5112356;28;20046;-65
2023/08/17 00:34:00;;;;;;;13.20;6.22;;;;;;;;;;5113140;28;20052;-65
2023/08/17 00:36:27;;;;;;;14.10;6.13;;;;;;;;;;5112841;28;20050;-65
2023/08/17 00:38:54;;;;;;;10.07;5.32;;;;;;;;;;5113222;28;20051;-65
2023/08/17 00:41:21;;;;;;;11.20;5.53;;;;;;;;;;5112296;28;20051;-64
2023/08/17 00:43:48;;;;;;;9.90;5.82;;;;;;;;;;5113519;28;20040;-65
2023/08/17 00:46:15;;;;;;;13.93;6.10;;;;;;;;;;5112628;28;20044;-65
2023/08/17 00:48:42;;;;;;;12.05;5.82;;;;;;;;;;5113395;28;20051;-65
2023/08/17 00:51:09;;;;;;;11.93;6.60;;;;;;;;;;5112097;28;20050;-65
2023/08/17 00:53:36;;;;;;;13.38;6.78;;;;;;;;;;5113223;28;20043;-65
2023/08/17 00:56:04;;;;;;;10.57;5.32;;;;;;;;;;5112538;28;20046;-65
2023/08/17 00:58:32;;;;;;;12.75;6.13;;;;;;;;;;5112920;28;20051;-65
2023/08/17 01:00:59;;;;;;;14.85;5.55;;;;;;;;;;5111463;28;20039;-65
2023/08/17 01:03:29;;;;;;;11.82;6.38;;;;;;;;;;5112799;28;20048;-64
2023/08/17 01:05:56;;;;;;;11.27;6.13;;;;;;;;;;5112536;28;20051;-63
2023/08/17 01:08:23;;;;;;;11.90;5.40;;;;;;;;;;5112382;28;20512;-65
2023/08/17 01:11:00;;;;;;;11.55;5.90;;;;;;;;;;5110676;28;20044;-64
2023/08/17 01:13:39;;;;;;;10.32;5.90;;;;;;;;;;5112051;28;20507;-65
2023/08/17 01:16:08;;;;;;;11.93;5.25;;;;;;;;;;5112594;28;20394;-66
2023/08/17 01:18:37;;;;;;;10.50;4.80;;;;;;;;;;5112219;28;20512;-65
2023/08/17 01:21:07;;;;;;;11.88;5.20;;;;;;;;;;5111951;28;20046;-65
2023/08/17 01:23:34;;;;;;;9.57;4.90;;;;;;;;;;5112066;28;20143;-65
2023/08/17 01:26:01;;;;;;;12.27;5.60;;;;;;;;;;5111993;28;20078;-65
2023/08/17 01:28:28;;;;;;;11.48;5.82;;;;;;;;;;5112038;28;20405;-64
2023/08/17 01:31:00;;;;;;;10.82;5.63;;;;;;;;;;5111410;28;20046;-65
2023/08/17 01:33:34;;;;;;;10.32;5.25;;;;;;;;;;5112192;28;20050;-64
2023/08/17 01:36:07;;;;;;;12.07;5.60;;;;;;;;;;5112003;28;20047;-65
2023/08/17 01:38:37;;;;;;;12.82;5.65;;;;;;;;;;5111612;28;20134;-65
2023/08/17 01:41:05;;;;;;;14.13;6.00;;;;;;;;;;5111439;28;20498;-64
2023/08/17 01:43:32;;;;;;;13.38;5.90;;;;;;;;;;5111810;28;20548;-65
2023/08/17 01:46:00;;;;;;;11.80;5.60;;;;;;;;;;5111922;27;20044;-64
2023/08/17 01:48:26;;;;;;;11.77;5.47;;;;;;;;;;5111514;28;20040;-65
2023/08/17 01:50:53;;;;;;;12.15;6.47;;;;;;;;;;5095450;28;20048;-65
2023/08/17 01:53:19;;;;;;;13.18;5.70;;;;;;;;;;5090567;28;20044;-65
2023/08/17 01:55:47;;;;;;;12.45;5.95;;;;;;;;;;5091658;28;20055;-65
2023/08/17 01:58:14;;;;;;;12.43;5.13;;;;;;;;;;5091321;28;20052;-65
2023/08/17 02:00:40;;;;;;;9.52;5.00;;;;;;;;;;5090065;28;20044;-65
2023/08/17 02:03:07;;;;;;;9.30;4.78;;;;;;;;;;5091061;28;20571;-65
2023/08/17 02:05:34;;;;;;;11.95;5.25;;;;;;;;;;5090453;28;20048;-65
2023/08/17 02:08:00;;;;;;;12.38;5.10;;;;;;;;;;5090588;28;20051;-65
2023/08/17 02:10:27;;;;;;;9.73;4.65;;;;;;;;;;5090126;28;20040;-65
2023/08/17 02:12:55;;;;;;;8.75;4.55;;;;;;;;;;5091147;28;20044;-65
2023/08/17 02:15:21;;;;;;;10.95;4.70;;;;;;;;;;5090817;28;20561;-64
2023/08/17 02:17:48;;;;;;;10.50;5.00;;;;;;;;;;5090787;28;20044;-64
2023/08/17 02:20:15;;;;;;;10.85;4.93;;;;;;;;;;5089619;28;20329;-65
2023/08/17 02:22:42;;;;;;;7.45;4.63;;;;;;;;;;5090275;28;20091;-65
2023/08/17 02:25:09;;;;;;;8.25;4.43;;;;;;;;;;5090656;28;20054;-65
2023/08/17 02:27:35;;;;;;;7.72;4.38;;;;;;;;;;5090044;28;20497;-65
2023/08/17 02:30:04;;;;;;;8.30;4.32;;;;;;;;;;5089714;28;20044;-65
2023/08/17 02:32:31;;;;;;;7.07;3.88;;;;;;;;;;5089577;28;20058;-65
2023/08/17 02:34:57;;;;;;;7.88;4.10;;;;;;;;;;5090419;28;20134;-65
2023/08/17 02:37:24;;;;;;;8.77;4.07;;;;;;;;;;5090070;28;20040;-65
2023/08/17 02:39:50;;;;;;;6.43;3.85;;;;;;;;;;5089784;28;20453;-65
2023/08/17 02:42:17;;;;;;;8.25;3.72;;;;;;;;;;5090576;28;20504;-65
2023/08/17 02:44:43;;;;;;;5.82;3.80;;;;;;;;;;5090234;28;20516;-65
2023/08/17 02:47:11;;;;;;;6.82;4.20;;;;;;;;;;5090070;28;20516;-65
2023/08/17 02:49:38;;;;;;;7.63;4.55;;;;;;;;;;5089230;28;20135;-65
2023/08/17 02:52:05;;;;;;;7.50;4.13;;;;;;;;;;5090428;28;20044;-65
2023/08/17 02:54:32;;;;;;;7.82;4.53;;;;;;;;;;5097078;28;20051;-65
2023/08/17 02:56:59;;;;;;;10.75;5.00;;;;;;;;;;5110043;28;20044;-65
2023/08/17 02:59:25;;;;;;;10.25;5.45;;;;;;;;;;5110115;28;20540;-65
2023/08/17 03:01:52;;;;;;;8.27;4.78;;;;;;;;;;5110132;28;20135;-65
2023/08/17 03:04:20;;;;;;;8.20;5.20;;;;;;;;;;5109959;28;20047;-65
2023/08/17 03:06:46;;;;;;;8.98;5.43;;;;;;;;;;5110495;28;20043;-65
2023/08/17 03:09:13;;;;;;;9.23;5.10;;;;;;;;;;5109689;28;20070;-64
2023/08/17 03:11:39;;;;;;;13.85;6.65;;;;;;;;;;5109641;28;20043;-65
2023/08/17 03:14:06;;;;;;;11.65;5.82;;;;;;;;;;5110401;28;20043;-65
2023/08/17 03:16:32;;;;;;;13.68;6.40;;;;;;;;;;5109747;28;20047;-65
2023/08/17 03:18:59;;;;;;;10.18;6.03;;;;;;;;;;5110322;28;20043;-65
2023/08/17 03:21:27;;;;;;;11.88;6.10;;;;;;;;;;5109317;28;20051;-65
2023/08/17 03:23:54;;;;;;;9.85;5.55;;;;;;;;;;5110364;28;20489;-65
2023/08/17 03:26:20;;;;;;;9.20;5.75;;;;;;;;;;5109620;28;20067;-65
2023/08/17 03:28:47;;;;;;;11.30;5.88;;;;;;;;;;5110400;28;20043;-65
2023/08/17 03:31:13;;;;;;;11.50;5.85;;;;;;;;;;5108743;28;20052;-65
2023/08/17 03:33:40;;;;;;;10.90;6.13;;;;;;;;;;5109708;28;20549;-65
2023/08/17 03:36:07;;;;;;;13.25;6.10;;;;;;;;;;5109378;28;20047;-65
2023/08/17 03:38:35;;;;;;;16.52;6.68;;;;;;;;;;5109975;28;20054;-65
2023/08/17 03:41:04;;;;;;;11.98;6.15;;;;;;;;;;5109219;28;20457;-65
2023/08/17 03:43:30;;;;;;;12.50;6.85;;;;;;;;;;5109478;28;20052;-65
2023/08/17 03:45:57;;;;;;;11.85;6.90;;;;;;;;;;5109859;28;20059;-64
2023/08/17 03:48:23;;;;;;;13.07;7.10;;;;;;;;;;5109683;28;20047;-65
2023/08/17 03:50:52;;;;;;;12.20;6.60;;;;;;;;;;5108803;28;20050;-65
2023/08/17 03:53:18;;;;;;;10.45;6.13;;;;;;;;;;5109489;28;20039;-65
2023/08/17 03:55:47;;;;;;;13.40;6.65;;;;;;;;;;5109838;28;20040;-64
2023/08/17 03:58:14;;;;;;;13.43;6.50;;;;;;;;;;5109431;28;20043;-65
2023/08/17 04:00:42;;;;;;;12.65;6.63;;;;;;;;;;5108982;28;20058;-65
2023/08/17 04:03:08;;;;;;;12.60;6.63;;;;;;;;;;5109353;28;20048;-65
2023/08/17 04:05:35;;;;;;;13.57;7.03;;;;;;;;;;5109948;28;20053;-65
2023/08/17 04:08:02;;;;;;;14.75;7.15;;;;;;;;;;5109845;28;20039;-64
2023/08/17 04:10:29;;;;;;;18.77;7.80;;;;;;;;;;5108189;28;20101;-65
2023/08/17 04:12:57;;;;;;;10.27;6.85;;;;;;;;;;5110030;28;20043;-64
2023/08/17 04:15:23;;;;;;;14.77;7.03;;;;;;;;;;5092587;22;20425;-69
2023/08/17 04:17:49;;;;;;;11.63;7.30;;;;;;;;;;5049445;28;20052;-69
2023/08/17 04:20:16;;;;;;;10.55;6.35;;;;;;;;;;5048272;28;20135;-70
2023/08/17 04:22:42;;;;;;;11.25;6.60;;;;;;;;;;5049331;28;20049;-70
2023/08/17 04:25:09;;;;;;;9.48;6.28;;;;;;;;;;5048950;28;20055;-70
2023/08/17 04:27:36;;;;;;;10.85;6.15;;;;;;;;;;5049474;28;20061;-70
2023/08/17 04:30:05;;;;;;;11.48;6.28;;;;;;;;;;5048112;28;20435;-70
2023/08/17 04:32:31;;;;;;;10.43;5.38;;;;;;;;;;5049260;28;20430;-70
2023/08/17 04:34:58;;;;;;;11.98;5.60;;;;;;;;;;5049540;28;20055;-70
2023/08/17 04:37:24;;;;;;;10.57;5.75;;;;;;;;;;5048515;28;20135;-71
2023/08/17 04:39:51;;;;;;;9.07;6.05;;;;;;;;;;5048094;28;20485;-69
2023/08/17 04:42:19;;;;;;;10.50;5.85;;;;;;;;;;5048936;28;20053;-70
2023/08/17 04:44:46;;;;;;;8.95;5.30;;;;;;;;;;5049021;28;20076;-71
2023/08/17 04:47:14;;;;;;;8.32;5.60;;;;;;;;;;5051966;28;20045;-69
2023/08/17 04:49:40;;;;;;;8.70;5.18;;;;;;;;;;5051786;28;20049;-69
2023/08/17 04:52:07;;;;;;;11.23;6.00;;;;;;;;;;5052003;28;20044;-69
2023/08/17 04:54:33;;;;;;;6.82;5.10;;;;;;;;;;5052744;28;20051;-69
2023/08/17 04:57:00;;;;;;;9.35;5.20;;;;;;;;;;5052087;28;20052;-69
2023/08/17 04:59:26;;;;;;;7.80;5.47;;;;;;;;;;5052277;28;20049;-69
2023/08/17 05:01:54;;;;;;;9.68;6.28;;;;;;;;;;5052161;28;20041;-69
2023/08/17 05:04:22;;;;;;;9.57;5.60;;;;;;;;;;5051884;28;20045;-69
2023/08/17 05:06:49;;;;;;;7.32;5.05;;;;;;;;;;5051995;28;20102;-69
2023/08/17 05:09:15;;;;;;;8.85;4.13;;;;;;;;;;5051909;28;20087;-69
2023/08/17 05:11:42;;;;;;;7.90;4.40;;;;;;;;;;5051858;28;20049;-69
2023/08/17 05:14:09;;;;;;;5.97;4.07;;;;;;;;;;5052800;28;20076;-69
2023/08/17 05:16:35;;;;;;;6.30;4.60;;;;;;;;;;5052206;28;20052;-69
2023/08/17 05:19:02;;;;;;;7.18;4.97;;;;;;;;;;5052788;28;20128;-69
2023/08/17 05:21:30;;;;;;;9.65;5.10;;;;;;;;;;5051964;28;20468;-69
2023/08/17 05:23:57;;;;;;;5.95;4.70;;;;;;;;;;5052269;28;20044;-69
2023/08/17 05:26:24;;;;;;;8.32;5.10;;;;;;;;;;5052631;28;20045;-69
2023/08/17 05:28:51;;;;;;;7.88;4.68;;;;;;;;;;5052329;28;20437;-69
2023/08/17 05:31:18;;;;;;;6.50;4.35;;;;;;;;;;5051571;28;20482;-69
2023/08/17 05:33:47;;;;;;;6.15;4.32;;;;;;;;;;5052798;28;20538;-69
2023/08/17 05:36:14;;;;;;;6.68;4.18;;;;;;;;;;5048121;28;20095;-70
2023/08/17 05:38:42;;;;;;;5.93;3.92;;;;;;;;;;5051667;28;20087;-69
2023/08/17 05:41:09;;;;;;;5.93;4.03;;;;;;;;;;5051086;28;20053;-67
2023/08/17 05:43:35;;;;;;;8.68;4.22;;;;;;;;;;5052258;28;20060;-68
2023/08/17 05:46:02;;;;;;;5.63;4.40;;;;;;;;;;5051197;28;20132;-70
2023/08/17 05:48:30;;;;;;;6.70;4.22;;;;;;;;;;5051288;28;20540;-70
2023/08/17 05:50:57;;;;;;;7.72;4.05;;;;;;;;;;5050325;28;20492;-69
2023/08/17 05:53:24;;;;;;;5.22;3.78;;;;;;;;;;5052064;28;20128;-70
2023/08/17 05:55:52;;;;;;;6.82;4.20;;;;;;;;;;5051239;28;20099;-68
2023/08/17 05:58:19;;;;;;;5.30;4.40;;;;;;;;;;5050904;28;20083;-69
2023/08/17 06:00:45;;;;;;;6.63;3.97;;;;;;;;;;5050317;28;20550;-69
2023/08/17 06:03:12;;;;;;;4.18;3.47;;;;;;;;;;5050868;28;20056;-67
2023/08/17 06:05:40;;;;;;;5.82;3.47;;;;;;;;;;5051399;28;20276;-69
2023/08/17 06:08:06;;;;;;;5.10;3.40;;;;;;;;;;5050571;28;20130;-69
2023/08/17 06:10:33;;;;;;;7.95;3.97;;;;;;;;;;5050093;28;20136;-69
2023/08/17 06:13:01;;;;;;;4.80;3.58;;;;;;;;;;5050536;28;20045;-68
2023/08/17 06:15:28;;;;;;;4.47;3.20;;;;;;;;;;5050763;28;20498;-68
2023/08/17 06:17:54;;;;;;;7.28;3.78;;;;;;;;;;5050665;28;20417;-67
2023/08/17 06:20:21;;;;;;;7.28;4.47;;;;;;;;;;5050530;28;20055;-66
2023/08/17 06:22:48;;;;;;;4.20;3.20;;;;;;;;;;5051236;28;20115;-68
2023/08/17 06:25:15;;;;;;;5.82;3.97;;;;;;;;;;5050606;28;20486;-67
2023/08/17 06:27:43;;;;;;;4.45;3.83;;;;;;;;;;5050794;28;20088;-69
2023/08/17 06:30:13;;;;;;;4.07;3.25;;;;;;;;;;5048935;28;20402;-68
2023/08/17 06:32:39;;;;;;;6.75;3.72;;;;;;;;;;5051131;28;20048;-68
2023/08/17 06:35:07;;;;;;;5.53;3.47;;;;;;;;;;5050315;28;20045;-69
2023/08/17 06:37:34;;;;;;;4.97;3.83;;;;;;;;;;5050674;28;20472;-70
2023/08/17 06:40:00;;;;;;;5.57;3.70;;;;;;;;;;5049369;28;20136;-68
2023/08/17 06:42:27;;;;;;;4.45;3.40;;;;;;;;;;5050319;28;20156;-69
2023/08/17 06:44:53;;;;;;;5.60;3.60;;;;;;;;;;5049514;28;20052;-70
2023/08/17 06:47:21;;;;;;;6.65;4.78;;;;;;;;;;5038931;28;20044;-70
2023/08/17 06:49:48;;;;;;;5.25;4.22;;;;;;;;;;5045929;28;20187;-70
2023/08/17 06:52:14;;;;;;;7.72;5.05;;;;;;;;;;5048778;28;20049;-68
2023/08/17 06:54:41;;;;;;;5.93;4.63;;;;;;;;;;5045494;28;20045;-69
2023/08/17 06:57:08;;;;;;;7.40;4.50;;;;;;;;;;5042180;28;20045;-68
2023/08/17 06:59:34;;;;;;;6.20;4.43;;;;;;;;;;5044141;28;20431;-71
2023/08/17 07:02:01;;;;;;;5.05;4.35;;;;;;;;;;5040718;28;20090;-70
2023/08/17 07:04:29;;;;;;;5.30;4.50;;;;;;;;;;5042605;28;20045;-68
2023/08/17 07:06:56;;;;;;;6.25;4.43;;;;;;;;;;5040424;28;20143;-69
2023/08/17 07:09:22;;;;;;;6.57;5.18;;;;;;;;;;5042164;28;20048;-68
2023/08/17 07:11:49;;;;;;;7.45;4.90;;;;;;;;;;5038191;28;20040;-69
2023/08/17 07:14:16;;;;;;;6.57;4.97;;;;;;;;;;5043691;28;20076;-69
2023/08/17 07:16:42;;;;;;;5.40;4.35;;;;;;;;;;5043015;28;20045;-69
2023/08/17 07:19:09;;;;;;;6.55;4.05;;;;;;;;;;5042122;28;20136;-72
2023/08/17 07:21:37;;;;;;;5.78;4.25;;;;;;;;;;5047298;28;20053;-68
2023/08/17 07:24:13;;;;;;;5.20;4.45;;;;;;;;;;5040921;28;20041;-68
2023/08/17 07:26:39;;;;;;;6.43;4.47;;;;;;;;;;5040720;28;20051;-68
2023/08/17 07:29:06;;;;;;;5.03;4.38;;;;;;;;;;5042413;28;20513;-69
2023/08/17 07:31:33;;;;;;;5.47;4.85;;;;;;;;;;5039615;28;20132;-69
2023/08/17 07:34:00;;;;;;;6.07;4.57;;;;;;;;;;5044992;28;20552;-69
2023/08/17 07:36:26;;;;;;;5.45;4.38;;;;;;;;;;5047600;28;20049;-68
2023/08/17 07:38:54;;;;;;;6.75;4.60;;;;;;;;;;5048352;28;20049;-68
2023/08/17 07:41:21;;;;;;;6.35;4.40;;;;;;;;;;5046337;28;20102;-69
2023/08/17 07:43:47;;;;;;;5.78;4.53;;;;;;;;;;5042052;28;20048;-70
2023/08/17 07:46:14;;;;;;;6.68;4.50;;;;;;;;;;5046094;28;20043;-70
2023/08/17 07:48:41;;;;;;;5.32;4.50;;;;;;;;;;5046325;28;20125;-68
2023/08/17 07:51:07;;;;;;;6.30;4.32;;;;;;;;;;5047628;28;20068;-67
2023/08/17 07:53:34;;;;;;;6.05;4.63;;;;;;;;;;5046135;28;20126;-71
2023/08/17 07:56:02;;;;;;;8.02;4.80;;;;;;;;;;5048122;28;20405;-69
2023/08/17 07:58:28;;;;;;;7.22;4.28;;;;;;;;;;5044974;28;20103;-68
2023/08/17 08:00:55;;;;;;;6.25;4.85;;;;;;;;;;5038861;28;20287;-69
2023/08/17 08:03:22;;;;;;;7.47;4.38;;;;;;;;;;5046459;28;20049;-69
2023/08/17 08:05:48;;;;;;;5.53;4.63;;;;;;;;;;5045675;28;20044;-71
2023/08/17 08:08:17;;;;;;;7.22;3.75;;;;;;;;;;5041871;28;20410;-69
2023/08/17 08:10:44;;;;;;;8.50;4.43;;;;;;;;;;5043963;28;20557;-67
2023/08/17 08:13:12;;;;;;;5.82;4.35;;;;;;;;;;5042498;28;20037;-69
2023/08/17 08:15:38;;;;;;;6.32;4.47;;;;;;;;;;5046459;28;20051;-70
2023/08/17 08:18:05;;;;;;;5.47;4.88;;;;;;;;;;5045417;28;20059;-70
2023/08/17 08:20:32;;;;;;;6.25;4.80;;;;;;;;;;5047867;28;20134;-68
2023/08/17 08:22:58;;;;;;;6.97;5.60;;;;;;;;;;5053051;28;20132;-69
2023/08/17 08:25:25;;;;;;;8.25;5.22;;;;;;;;;;5051768;28;20417;-68
2023/08/17 08:27:52;;;;;;;6.20;5.22;;;;;;;;;;5052689;28;20049;-68
2023/08/17 08:30:20;;;;;;;6.25;5.40;;;;;;;;;;5052356;28;20051;-67
2023/08/17 08:32:46;;;;;;;6.97;5.60;;;;;;;;;;5052527;28;20067;-66
2023/08/17 08:35:13;;;;;;;6.15;5.20;;;;;;;;;;5052539;28;20457;-70
2023/08/17 08:37:40;;;;;;;7.13;5.53;;;;;;;;;;5052330;28;20059;-67
2023/08/17 08:40:12;;;;;;;6.43;5.05;;;;;;;;;;5052072;28;20532;-69
2023/08/17 08:42:38;;;;;;;;;;;;;;;;;;5052894;28;20041;-67
2023/08/17 08:45:06;;;;;;;6.45;5.32;;;;;;;;;;5052763;28;19921;-70
2023/08/17 08:47:36;;;;;;;8.65;6.05;;;;;;;;;;5052463;28;20128;-71
2023/08/17 08:50:05;;;;;;;9.13;6.13;;;;;;;;;;5052133;28;20405;-69
2023/08/17 08:52:35;;;;;;;7.05;6.10;;;;;;;;;;5052388;28;20490;-69
2023/08/17 08:55:12;;;;;;;7.70;5.82;;;;;;;;;;5052542;28;20045;-70
2023/08/17 08:57:39;;;;;;;7.57;5.53;;;;;;;;;;5051775;28;20565;-70
2023/08/17 09:00:07;;;;;;;6.78;6.18;;;;;;;;;;5051258;28;20513;-72
2023/08/17 09:02:36;;;;;;;7.95;5.82;;;;;;;;;;5052178;28;20392;-70
2023/08/17 09:05:02;;;;;;;6.78;5.40;;;;;;;;;;5052429;28;20413;-68
2023/08/17 09:07:30;;;;;;;6.00;5.40;;;;;;;;;;5052234;28;20505;-69
2023/08/17 09:09:57;;;;;;;6.63;5.53;;;;;;;;;;5050894;28;20433;-69
2023/08/17 09:12:23;;;;;;;7.50;5.35;;;;;;;;;;5052038;28;20055;-70
2023/08/17 09:14:50;;;;;;;8.85;4.93;;;;;;;;;;5051459;28;20052;-71
2023/08/17 09:17:24;;;;;;;7.18;5.50;;;;;;;;;;5052148;28;20515;-69
2023/08/17 09:19:52;;;;;;;6.53;4.68;;;;;;;;;;5050802;28;20059;-71
2023/08/17 09:22:23;;;;;;;7.75;5.50;;;;;;;;;;5052101;28;20048;-71
2023/08/17 09:24:50;;;;;;;5.88;5.18;;;;;;;;;;5052081;28;20455;-71
2023/08/17 09:27:17;;;;;;;7.18;5.47;;;;;;;;;;5051376;28;20136;-71
2023/08/17 09:29:45;;;;;;;5.53;4.88;;;;;;;;;;5050790;28;20041;-68
2023/08/17 09:32:12;;;;;;;6.03;4.93;;;;;;;;;;5050982;28;20045;-68
2023/08/17 09:34:39;;;;;;;5.65;4.88;;;;;;;;;;5051501;28;20045;-71
2023/08/17 09:37:07;;;;;;;5.40;4.85;;;;;;;;;;5051820;28;20099;-70
2023/08/17 09:39:33;;;;;;;7.65;4.93;;;;;;;;;;5051089;28;20467;-69
2023/08/17 09:42:00;;;;;;;6.65;5.47;;;;;;;;;;5051358;28;20495;-68
2023/08/17 09:44:27;;;;;;;5.65;4.97;;;;;;;;;;5051563;28;20049;-69
2023/08/17 09:46:56;;;;;;;6.82;5.00;;;;;;;;;;5051251;28;20044;-69
2023/08/17 09:49:24;;;;;;;6.03;5.43;;;;;;;;;;5051698;28;20051;-69
2023/08/17 09:51:52;;;;;;;6.50;5.28;;;;;;;;;;5050282;28;20045;-68
2023/08/17 09:54:26;;;;;;;5.75;4.40;;;;;;;;;;5051705;28;20143;-68
2023/08/17 09:56:53;;;;;;;6.57;5.00;;;;;;;;;;5050986;28;20049;-68
2023/08/17 09:59:21;;;;;;;5.80;4.97;;;;;;;;;;5051038;28;20053;-70
2023/08/17 10:01:50;;;;;;;7.53;5.32;;;;;;;;;;5050177;28;20457;-70
2023/08/17 10:04:21;;;;;;;8.35;5.07;;;;;;;;;;5051225;28;20041;-69
2023/08/17 10:06:49;;;;;;;10.20;5.78;;;;;;;;;;5050477;28;20426;-71
2023/08/17 10:09:20;;;;;;;5.57;4.78;;;;;;;;;;5051318;28;20045;-70
2023/08/17 10:11:50;;;;;;;5.78;5.10;;;;;;;;;;5049749;28;20084;-69
2023/08/17 10:14:22;;;;;;;6.57;4.65;;;;;;;;;;5050932;28;20188;-69
2023/08/17 10:16:54;;;;;;;4.90;4.50;;;;;;;;;;5044860;22;20525;-66
2023/08/17 10:19:30;;;;;;;;;;;;;;;;;;5042720;28;20452;-66
2023/08/17 10:22:04;;;;;;;5.13;3.75;;;;;;;;;;5051675;28;19927;-67
2023/08/17 10:24:40;;;;;;;5.03;4.43;;;;;;;;;;5051536;28;20056;-67
2023/08/17 10:27:14;;;;;;;4.88;4.28;;;;;;;;;;5050962;28;20045;-67
2023/08/17 10:29:42;;;;;;;4.40;3.90;;;;;;;;;;5050159;28;20135;-66
2023/08/17 10:32:09;;;;;;;4.72;4.20;;;;;;;;;;5049930;28;20044;-66
2023/08/17 10:34:36;;;;;;;4.13;3.47;;;;;;;;;;5051039;28;20044;-66
2023/08/17 10:37:03;;;;;;;4.40;3.78;;;;;;;;;;5050402;28;20067;-66
2023/08/17 10:39:30;;;;;;;4.47;4.07;;;;;;;;;;5049907;28;20049;-65
2023/08/17 10:41:58;;;;;;;4.50;4.05;;;;;;;;;;5050900;28;20051;-66
2023/08/17 10:44:45;;;;;;;5.05;4.50;;;;;;;;;;5050234;28;20056;-66
2023/08/17 10:47:22;;;;;;;4.55;4.13;;;;;;;;;;5041169;28;20046;-66
2023/08/17 10:49:49;;;;;;;4.72;4.18;;;;;;;;;;5028884;28;20059;-66
2023/08/17 10:52:26;;;;;;;4.40;4.00;;;;;;;;;;5029921;28;20049;-66
2023/08/17 10:54:53;;;;;;;4.50;4.10;;;;;;;;;;5029497;28;20410;-66
2023/08/17 10:57:34;;;;;;;5.85;4.45;;;;;;;;;;5030206;28;20042;-66
2023/08/17 11:00:15;;;;;;;5.45;4.35;;;;;;;;;;5028934;28;20134;-66
2023/08/17 11:02:43;;;;;;;5.40;4.30;;;;;;;;;;5029769;28;20053;-66
2023/08/17 11:05:12;;;;;;;4.32;3.72;;;;;;;;;;5042764;28;20382;-66
2023/08/17 11:07:42;;;;;;;4.65;3.72;;;;;;;;;;5050398;28;20228;-66
2023/08/17 11:10:28;;;;;;;4.25;3.85;;;;;;;;;;5048704;28;20051;-66
2023/08/17 11:12:59;;;;;;;6.53;4.28;;;;;;;;;;5050406;28;20048;-67
2023/08/17 11:15:38;;;;;;;5.30;4.55;;;;;;;;;;5049589;28;20053;-66
2023/08/17 11:18:06;;;;;;;4.80;4.30;;;;;;;;;;5050290;28;20068;-66
2023/08/17 11:20:33;;;;;;;4.47;4.07;;;;;;;;;;5049177;28;20041;-66
2023/08/17 11:23:00;;;;;;;4.15;3.75;;;;;;;;;;5050468;28;20059;-66
2023/08/17 11:25:27;;;;;;;4.63;4.22;;;;;;;;;;5049650;28;20048;-67
2023/08/17 11:27:55;;;;;;;4.50;4.10;;;;;;;;;;5050098;28;20331;-66
2023/08/17 11:30:23;;;;;;;5.85;4.22;;;;;;;;;;5049509;28;20059;-67
2023/08/17 11:32:51;;;;;;;4.50;4.10;;;;;;;;;;5050650;28;20549;-67
2023/08/17 11:35:24;;;;;;;5.75;4.47;;;;;;;;;;5049989;28;20045;-67
2023/08/17 11:37:51;;;;;;;4.35;3.72;;;;;;;;;;5049991;28;20056;-67
2023/08/17 11:40:18;;;;;;;4.70;4.25;;;;;;;;;;5050727;28;20099;-67
2023/08/17 11:42:46;;;;;;;3.92;3.53;;;;;;;;;;5051051;28;20556;-67
2023/08/17 11:45:14;;;;;;;3.75;3.45;;;;;;;;;;5051357;28;20094;-67
2023/08/17 11:47:43;;;;;;;4.53;4.13;;;;;;;;;;5050657;28;20072;-67
2023/08/17 11:50:13;;;;;;;5.35;3.92;;;;;;;;;;5049380;28;20099;-66
2023/08/17 11:52:43;;;;;;;4.45;3.83;;;;;;;;;;5049715;28;20141;-66
2023/08/17 11:55:10;;;;;;;4.00;3.67;;;;;;;;;;5052507;28;20049;-67
2023/08/17 11:57:37;;;;;;;4.10;3.70;;;;;;;;;;5053361;28;20076;-66
2023/08/17 12:00:06;;;;;;;4.45;3.80;;;;;;;;;;5053064;28;20475;-67
2023/08/17 12:02:37;;;;;;;4.15;3.78;;;;;;;;;;5053289;28;20072;-67
2023/08/17 12:05:06;;;;;;;5.20;3.88;;;;;;;;;;5053940;28;20045;-67
2023/08/17 12:07:34;;;;;;;3.67;3.38;;;;;;;;;;5053012;28;20106;-66
2023/08/17 12:10:07;;;;;;;4.05;3.65;;;;;;;;;;5053047;28;20049;-67
2023/08/17 12:12:38;;;;;;;5.65;3.60;;;;;;;;;;5053328;28;20049;-67
2023/08/17 12:15:05;;;;;;;3.90;3.50;;;;;;;;;;5053140;28;20041;-67
2023/08/17 12:17:32;;;;;;;4.53;4.00;;;;;;;;;;5053290;28;20770;-66
2023/08/17 12:20:00;;;;;;;4.55;3.47;;;;;;;;;;5051935;28;20045;-66
2023/08/17 12:22:27;;;;;;;4.13;3.15;;;;;;;;;;5052947;28;20059;-67
2023/08/17 12:24:55;;;;;;;4.20;3.80;;;;;;;;;;5052752;28;20045;-66
2023/08/17 12:27:23;;;;;;;4.15;3.80;;;;;;;;;;5052790;28;20051;-67
2023/08/17 12:29:51;;;;;;;5.28;3.50;;;;;;;;;;5051946;28;20053;-67
2023/08/17 12:32:19;;;;;;;3.92;3.58;;;;;;;;;;5053061;28;20053;-67
2023/08/17 12:34:46;;;;;;;3.90;3.47;;;;;;;;;;5052452;28;20483;-67
2023/08/17 12:37:13;;;;;;;4.63;3.58;;;;;;;;;;5053282;28;20465;-66
2023/08/17 12:39:40;;;;;;;3.58;3.17;;;;;;;;;;5051777;28;20044;-67
2023/08/17 12:42:08;;;;;;;4.35;3.25;;;;;;;;;;5053032;28;20056;-67
2023/08/17 12:44:34;;;;;;;4.13;3.72;;;;;;;;;;5052604;28;20052;-66
2023/08/17 12:47:01;;;;;;;3.88;3.33;;;;;;;;;;5052599;28;20045;-67
2023/08/17 12:49:27;;;;;;;3.70;3.30;;;;;;;;;;5052373;28;20565;-66
2023/08/17 12:51:54;;;;;;;4.55;3.25;;;;;;;;;;5052477;28;20045;-67
2023/08/17 12:54:20;;;;;;;3.22;3.03;;;;;;;;;;5053096;28;20055;-67
2023/08/17 12:56:47;;;;;;;4.03;3.10;;;;;;;;;;5052617;28;20053;-66
2023/08/17 12:59:22;;;;;;;3.40;3.10;;;;;;;;;;5052553;28;20056;-66
2023/08/17 13:01:49;;;;;;;5.15;3.50;;;;;;;;;;5051102;28;20047;-66
2023/08/17 13:04:15;;;;;;;3.78;3.47;;;;;;;;;;5052866;28;20040;-67
2023/08/17 13:06:47;;;;;;;3.90;3.50;;;;;;;;;;5050758;28;20460;-67
2023/08/17 13:09:19;;;;;;;3.80;3.50;;;;;;;;;;5052454;28;20053;-67
2023/08/17 13:11:46;;;;;;;3.53;3.22;;;;;;;;;;5050852;28;20044;-67
2023/08/17 13:14:14;;;;;;;3.17;2.95;;;;;;;;;;5052053;28;20045;-64
2023/08/17 13:16:41;;;;;;;4.47;3.15;;;;;;;;;;5052019;28;20047;-66
2023/08/17 13:19:07;;;;;;;4.53;3.33;;;;;;;;;;5051863;28;20132;-67
2023/08/17 13:21:34;;;;;;;4.32;3.08;;;;;;;;;;5050913;28;20529;-66
2023/08/17 13:24:04;;;;;;;4.03;2.90;;;;;;;;;;5052375;28;20072;-66
2023/08/17 13:26:31;;;;;;;4.55;3.30;;;;;;;;;;5051699;28;20048;-67
2023/08/17 13:28:57;;;;;;;3.25;2.90;;;;;;;;;;5051684;28;20044;-66
2023/08/17 13:31:25;;;;;;;5.00;3.65;;;;;;;;;;5050652;28;20051;-67
2023/08/17 13:33:52;;;;;;;5.28;3.25;;;;;;;;;;5051990;28;20410;-66
2023/08/17 13:36:19;;;;;;;3.97;3.22;;;;;;;;;;5051738;28;20064;-66
2023/08/17 13:38:46;;;;;;;3.20;2.90;;;;;;;;;;5051615;28;20059;-67
2023/08/17 13:41:13;;;;;;;3.20;2.90;;;;;;;;;;5050827;28;20506;-64
2023/08/17 13:43:40;;;;;;;4.32;3.17;;;;;;;;;;5051414;28;20084;-66
2023/08/17 13:46:09;;;;;;;3.40;3.10;;;;;;;;;;5051642;28;20128;-66
2023/08/17 13:48:39;;;;;;;3.10;2.88;;;;;;;;;;5051152;28;20522;-66
2023/08/17 13:51:05;;;;;;;3.00;2.50;;;;;;;;;;5050855;28;20064;-67
2023/08/17 13:53:32;;;;;;;3.58;3.28;;;;;;;;;;5050998;28;20049;-67
2023/08/17 13:55:58;;;;;;;3.88;2.67;;;;;;;;;;5051377;28;20049;-66
2023/08/17 13:58:25;;;;;;;5.35;2.65;;;;;;;;;;5050949;28;20106;-65
2023/08/17 14:00:51;;;;;;;7.75;2.85;;;;;;;;;;5050661;28;20045;-65
2023/08/17 14:03:18;;;;;;;2.70;2.50;;;;;;;;;;5051296;28;20063;-65
2023/08/17 14:05:46;;;;;;;3.83;2.40;;;;;;;;;;5051470;28;20040;-65
2023/08/17 14:08:12;;;;;;;3.83;2.85;;;;;;;;;;5050849;28;20529;-66
2023/08/17 14:10:39;;;;;;;2.97;2.67;;;;;;;;;;5050455;28;20056;-65
2023/08/17 14:13:05;;;;;;;3.00;2.80;;;;;;;;;;5050925;28;20044;-65
2023/08/17 14:15:32;;;;;;;2.67;2.45;;;;;;;;;;5050837;28;20047;-65
2023/08/17 14:17:58;;;;;;;3.03;2.72;;;;;;;;;;5050597;28;20048;-65
2023/08/17 14:20:25;;;;;;;3.53;2.60;;;;;;;;;;5050175;28;20048;-65
2023/08/17 14:22:53;;;;;;;4.40;2.95;;;;;;;;;;5051369;28;20509;-66
2023/08/17 14:25:20;;;;;;;3.22;2.78;;;;;;;;;;5050993;28;20422;-64
2023/08/17 14:27:47;;;;;;;2.50;2.30;;;;;;;;;;5051186;28;20059;-65
2023/08/17 14:30:14;;;;;;;2.65;2.45;;;;;;;;;;5049982;28;20045;-65
2023/08/17 14:32:40;;;;;;;2.85;2.65;;;;;;;;;;5050873;28;20219;-65
2023/08/17 14:35:07;;;;;;;3.40;2.42;;;;;;;;;;5050306;28;20049;-65
2023/08/17 14:37:34;;;;;;;3.45;2.40;;;;;;;;;;5050668;28;20057;-65
2023/08/17 14:40:02;;;;;;;3.95;2.50;;;;;;;;;;5049494;28;20540;-65
2023/08/17 14:42:29;;;;;;;2.42;2.17;;;;;;;;;;5050921;28;20490;-65
2023/08/17 14:44:56;;;;;;;2.58;2.38;;;;;;;;;;5050243;28;20049;-65